createdAt,value
2019-03-02T00:01:41.811Z,4.10
2019-03-02T00:04:10.150Z,4.10
2019-03-02T00:06:38.762Z,4.10
2019-03-02T00:09:06.858Z,4.10
2019-03-02T00:11:34.716Z,4.10
2019-03-02T00:14:02.603Z,4.10
2019-03-02T00:16:30.714Z,4.10
2019-03-02T00:18:58.512Z,4.10
2019-03-02T00:21:27.759Z,4.10
2019-03-02T00:23:56.016Z,4.20
2019-03-02T00:26:23.806Z,4.20
2019-03-02T00:28:51.647Z,4.30
2019-03-02T00:31:19.529Z,4.30
2019-03-02T00:33:47.381Z,4.20
2019-03-02T00:36:15.928Z,4.30
2019-03-02T00:38:44.840Z,4.30
2019-03-02T00:41:12.728Z,4.30
2019-03-02T00:43:40.566Z,4.20
2019-03-02T00:46:08.455Z,4.20
2019-03-02T00:48:36.319Z,4.20
2019-03-02T00:51:04.194Z,4.20
2019-03-02T00:53:35.605Z,4.10
2019-03-02T00:56:04.078Z,4.10
2019-03-02T00:58:31.671Z,4.10
2019-03-02T01:00:59.545Z,4.10
2019-03-02T01:03:27.398Z,4.10
2019-03-02T01:05:55.290Z,4.10
2019-03-02T01:08:23.438Z,4.10
2019-03-02T01:10:54.608Z,4.10
2019-03-02T01:13:23.099Z,4.10
2019-03-02T01:15:50.628Z,4.10
2019-03-02T01:18:18.489Z,4.00
2019-03-02T01:20:46.379Z,4.00
2019-03-02T01:23:15.111Z,4.00
2019-03-02T01:25:45.508Z,4.00
2019-03-02T01:28:12.436Z,4.00
2019-03-02T01:30:40.293Z,4.00
2019-03-02T01:33:08.149Z,4.10
2019-03-02T01:35:36.045Z,4.10
2019-03-02T01:38:03.947Z,4.10
2019-03-02T01:40:31.802Z,4.10
2019-03-02T01:43:01.969Z,4.10
2019-03-02T01:45:29.264Z,4.10
2019-03-02T01:47:57.093Z,4.10
2019-03-02T01:50:24.981Z,4.10
2019-03-02T01:52:52.924Z,4.10
2019-03-02T01:55:20.730Z,4.10
2019-03-02T01:57:48.827Z,4.20
2019-03-02T02:00:21.655Z,4.20
2019-03-02T02:02:49.530Z,4.20
2019-03-02T02:05:17.415Z,4.10
2019-03-02T02:07:45.266Z,4.10
2019-03-02T02:10:13.218Z,4.10
2019-03-02T02:12:41.680Z,4.10
2019-03-02T02:15:10.883Z,4.20
2019-03-02T02:17:38.699Z,4.20
2019-03-02T02:20:11.006Z,4.20
2019-03-02T02:22:37.981Z,4.20
2019-03-02T02:25:07.472Z,4.30
2019-03-02T02:27:35.463Z,4.30
2019-03-02T02:30:03.562Z,4.30
2019-03-02T02:32:31.436Z,4.30
2019-03-02T02:35:01.182Z,4.30
2019-03-02T02:37:32.230Z,4.30
2019-03-02T02:39:58.287Z,4.30
2019-03-02T02:42:26.166Z,4.40
2019-03-02T02:44:54.036Z,4.40
2019-03-02T02:47:21.911Z,4.40
2019-03-02T02:49:51.111Z,4.40
2019-03-02T02:52:27.494Z,4.50
2019-03-02T02:54:48.943Z,4.50
2019-03-02T02:57:16.770Z,4.50
2019-03-02T02:59:44.615Z,4.50
2019-03-02T03:02:12.494Z,4.50
2019-03-02T03:04:40.347Z,4.50
2019-03-02T03:07:12.329Z,4.50
2019-03-02T03:09:45.279Z,4.60
2019-03-02T03:12:12.990Z,4.50
2019-03-02T03:14:40.772Z,4.60
2019-03-02T03:17:08.611Z,4.60
2019-03-02T03:19:36.464Z,4.60
2019-03-02T03:22:07.199Z,4.60
2019-03-02T03:24:40.145Z,4.60
2019-03-02T03:27:03.458Z,4.60
2019-03-02T03:29:31.595Z,4.60
2019-03-02T03:32:07.599Z,4.60
2019-03-02T03:34:32.458Z,4.60
2019-03-02T03:36:59.710Z,4.60
2019-03-02T03:39:27.607Z,4.60
2019-03-02T03:41:55.480Z,4.60
2019-03-02T03:44:27.172Z,4.60
2019-03-02T03:46:56.215Z,4.60
2019-03-02T03:49:22.535Z,4.60
2019-03-02T03:51:50.665Z,4.50
2019-03-02T03:54:18.475Z,4.60
2019-03-02T03:56:46.266Z,4.60
2019-03-02T03:59:18.671Z,4.70
2019-03-02T04:01:43.631Z,4.70
2019-03-02T04:04:11.752Z,4.60
2019-03-02T04:06:39.585Z,4.70
2019-03-02T04:09:09.917Z,4.60
2019-03-02T04:11:37.834Z,4.60
2019-03-02T04:14:06.945Z,4.60
2019-03-02T04:16:35.499Z,4.60
2019-03-02T04:19:03.292Z,4.60
2019-03-02T04:21:32.290Z,4.60
2019-03-02T04:24:01.445Z,4.60
2019-03-02T04:26:31.356Z,4.70
2019-03-02T04:28:59.279Z,4.60
2019-03-02T04:31:27.149Z,4.60
2019-03-02T04:33:55.004Z,4.60
2019-03-02T04:36:22.887Z,4.60
2019-03-02T04:38:50.746Z,4.60
2019-03-02T04:41:18.613Z,4.60
2019-03-02T04:43:46.545Z,4.60
2019-03-02T04:46:15.425Z,4.60
2019-03-02T04:48:43.876Z,4.50
2019-03-02T04:51:11.710Z,4.50
2019-03-02T04:53:39.602Z,4.40
2019-03-02T04:56:07.451Z,4.40
2019-03-02T04:58:35.329Z,4.30
2019-03-02T05:01:06.585Z,4.30
2019-03-02T05:03:32.715Z,4.20
2019-03-02T05:06:00.559Z,4.30
2019-03-02T05:08:28.367Z,4.30
2019-03-02T05:10:56.174Z,4.20
2019-03-02T05:13:24.723Z,4.20
2019-03-02T05:15:53.763Z,4.20
2019-03-02T05:18:21.668Z,4.20
2019-03-02T05:20:49.504Z,4.20
2019-03-02T05:23:17.377Z,4.20
2019-03-02T05:25:45.230Z,4.20
2019-03-02T05:28:13.397Z,4.20
2019-03-02T05:30:41.269Z,4.20
2019-03-02T05:33:09.233Z,4.20
2019-03-02T05:35:36.993Z,4.20
2019-03-02T05:38:04.796Z,4.10
2019-03-02T05:40:32.629Z,4.10
2019-03-02T05:43:00.529Z,4.00
2019-03-02T05:45:28.320Z,4.10
2019-03-02T05:47:56.106Z,4.00
2019-03-02T05:50:26.481Z,4.00
2019-03-02T05:52:54.223Z,4.00
2019-03-02T05:55:23.016Z,4.10
2019-03-02T05:57:50.806Z,4.10
2019-03-02T06:00:20.054Z,4.10
2019-03-02T06:02:47.886Z,4.10
2019-03-02T06:05:15.719Z,4.10
2019-03-02T06:07:43.879Z,4.10
2019-03-02T06:10:13.618Z,4.10
2019-03-02T06:12:41.188Z,4.20
2019-03-02T06:15:09.175Z,4.10
2019-03-02T06:17:37.002Z,4.10
2019-03-02T06:20:05.208Z,4.10
2019-03-02T06:22:33.033Z,4.00
2019-03-02T06:25:00.926Z,4.00
2019-03-02T06:27:28.789Z,4.10
2019-03-02T06:29:56.570Z,4.10
2019-03-02T06:32:25.963Z,4.20
2019-03-02T06:34:55.793Z,4.20
2019-03-02T06:37:23.636Z,4.20
2019-03-02T06:39:51.516Z,4.30
2019-03-02T06:42:19.443Z,4.30
2019-03-02T06:44:47.269Z,4.30
2019-03-02T06:47:15.102Z,4.30
2019-03-02T06:49:43.001Z,4.30
2019-03-02T06:52:10.860Z,4.40
2019-03-02T06:54:38.652Z,4.40
2019-03-02T06:57:06.467Z,4.50
2019-03-02T06:59:35.792Z,4.50
2019-03-02T07:02:03.944Z,4.60
2019-03-02T07:04:32.227Z,4.60
2019-03-02T07:07:00.086Z,4.60
2019-03-02T07:09:27.971Z,4.60
2019-03-02T07:11:55.733Z,4.60
2019-03-02T07:14:23.602Z,4.60
2019-03-02T07:16:52.029Z,4.60
2019-03-02T07:19:37.493Z,4.60
2019-03-02T07:22:05.297Z,4.60
2019-03-02T07:24:33.198Z,4.60
2019-03-02T07:27:01.040Z,4.60
2019-03-02T07:29:28.925Z,4.60
2019-03-02T07:31:56.783Z,4.60
2019-03-02T07:34:24.750Z,4.70
2019-03-02T07:36:52.643Z,4.70
2019-03-02T07:39:20.487Z,4.70
2019-03-02T07:41:48.429Z,4.80
2019-03-02T07:44:18.804Z,4.90
2019-03-02T07:46:47.933Z,4.90
2019-03-02T07:49:15.454Z,4.90
2019-03-02T07:51:43.289Z,4.90
2019-03-02T07:54:11.177Z,5.00
2019-03-02T07:56:39.036Z,5.00
2019-03-02T07:59:06.918Z,5.10
2019-03-02T08:01:35.176Z,5.10
2019-03-02T08:04:03.058Z,5.10
2019-03-02T08:06:30.919Z,5.20
2019-03-02T08:08:58.800Z,5.10
2019-03-02T08:11:26.942Z,5.10
2019-03-02T08:13:54.733Z,5.10
2019-03-02T08:16:22.591Z,5.10
2019-03-02T08:18:50.563Z,5.20
2019-03-02T08:21:18.522Z,5.10
2019-03-02T08:23:46.431Z,5.10
2019-03-02T08:26:14.258Z,5.20
2019-03-02T08:28:45.750Z,5.20
2019-03-02T08:31:11.914Z,5.20
2019-03-02T08:33:45.929Z,5.30
2019-03-02T08:36:09.335Z,5.30
2019-03-02T08:38:37.207Z,5.40
2019-03-02T08:41:05.068Z,5.30
2019-03-02T08:43:32.946Z,5.40
2019-03-02T08:46:03.544Z,5.40
2019-03-02T08:48:30.417Z,5.40
2019-03-02T08:50:58.215Z,5.50
2019-03-02T08:53:26.127Z,5.40
2019-03-02T08:55:54.082Z,5.50
2019-03-02T08:58:22.668Z,5.50
2019-03-02T09:00:51.578Z,5.50
2019-03-02T09:03:19.673Z,5.50
2019-03-02T09:05:51.480Z,5.50
2019-03-02T09:08:17.301Z,5.60
2019-03-02T09:10:45.836Z,5.70
2019-03-02T09:13:14.883Z,5.70
2019-03-02T09:15:43.224Z,5.70
2019-03-02T09:18:11.179Z,5.70
2019-03-02T09:20:38.947Z,5.80
2019-03-02T09:23:06.793Z,5.90
2019-03-02T09:25:35.323Z,5.90
2019-03-02T09:28:03.412Z,6.00
2019-03-02T09:30:31.576Z,6.00
2019-03-02T09:32:59.388Z,6.00
2019-03-02T09:35:27.351Z,6.10
2019-03-02T09:37:55.235Z,6.00
2019-03-02T09:40:24.552Z,5.90
2019-03-02T09:42:52.966Z,5.90
2019-03-02T09:45:20.961Z,5.90
2019-03-02T09:47:51.549Z,5.90
2019-03-02T09:50:18.469Z,6.00
2019-03-02T09:52:46.382Z,6.10
2019-03-02T09:55:14.862Z,6.10
2019-03-02T09:57:47.468Z,6.10
2019-03-02T10:00:23.695Z,6.20
2019-03-02T10:02:51.518Z,6.30
2019-03-02T10:05:20.078Z,6.30
2019-03-02T10:07:48.842Z,6.30
2019-03-02T10:10:16.690Z,6.30
2019-03-02T10:12:47.157Z,6.30
2019-03-02T10:15:19.344Z,6.40
2019-03-02T10:17:47.485Z,6.40
2019-03-02T10:20:15.366Z,6.50
2019-03-02T10:22:43.248Z,6.60
2019-03-02T10:25:11.158Z,6.50
2019-03-02T10:27:38.982Z,6.60
2019-03-02T10:30:08.227Z,6.60
2019-03-02T10:32:36.038Z,6.60
2019-03-02T10:35:04.023Z,6.50
2019-03-02T10:37:31.920Z,6.50
2019-03-02T10:39:59.783Z,6.50
2019-03-02T10:42:27.618Z,6.50
2019-03-02T10:44:57.274Z,6.50
2019-03-02T10:47:24.914Z,6.50
2019-03-02T10:49:53.160Z,6.60
2019-03-02T10:52:20.925Z,6.70
2019-03-02T10:54:49.031Z,6.60
2019-03-02T10:57:16.805Z,6.60
2019-03-02T10:59:47.901Z,6.60
2019-03-02T11:02:16.993Z,6.50
2019-03-02T11:05:00.097Z,6.50
2019-03-02T11:08:02.299Z,6.40
2019-03-02T11:10:56.528Z,6.40
2019-03-02T11:13:48.082Z,6.50
2019-03-02T11:16:23.918Z,6.50
2019-03-02T11:18:56.886Z,6.50
2019-03-02T11:21:35.455Z,6.60
2019-03-02T11:24:12.588Z,6.60
2019-03-02T11:26:50.739Z,6.60
2019-03-02T11:29:31.226Z,6.70
2019-03-02T11:32:12.152Z,6.70
2019-03-02T11:34:58.093Z,6.70
2019-03-02T11:37:42.319Z,6.70
2019-03-02T11:40:33.143Z,6.50
2019-03-02T11:43:12.840Z,6.60
2019-03-02T11:45:54.387Z,6.60
2019-03-02T11:48:33.854Z,6.50
2019-03-02T11:51:19.907Z,6.40
2019-03-02T11:54:05.934Z,6.50
2019-03-02T11:56:52.007Z,6.60
2019-03-02T11:59:38.135Z,6.70
2019-03-02T12:02:24.872Z,6.80
2019-03-02T12:05:12.909Z,6.90
2019-03-02T12:07:50.610Z,7.00
2019-03-02T12:10:30.157Z,7.00
2019-03-02T12:13:09.138Z,6.80
2019-03-02T12:15:56.142Z,6.80
2019-03-02T12:18:35.247Z,7.00
2019-03-02T12:21:17.956Z,7.20
2019-03-02T12:24:00.008Z,7.30
2019-03-02T12:26:42.894Z,7.60
2019-03-02T12:29:36.633Z,7.70
2019-03-02T12:32:22.468Z,7.90
2019-03-02T12:34:56.302Z,7.70
2019-03-02T12:37:49.087Z,7.40
2019-03-02T12:40:28.916Z,7.40
2019-03-02T12:43:20.098Z,7.60
2019-03-02T12:46:09.427Z,7.70
2019-03-02T12:48:53.380Z,7.50
2019-03-02T12:51:46.554Z,7.50
2019-03-02T12:54:43.397Z,7.70
2019-03-02T12:57:15.515Z,7.60
2019-03-02T12:59:52.270Z,7.40
2019-03-02T13:02:26.615Z,7.40
2019-03-02T13:05:07.185Z,7.10
2019-03-02T13:07:54.774Z,7.00
2019-03-02T13:10:31.770Z,7.10
2019-03-02T13:13:20.635Z,7.20
2019-03-02T13:16:04.070Z,7.20
2019-03-02T13:18:38.298Z,7.30
2019-03-02T13:21:20.081Z,7.20
2019-03-02T13:23:58.376Z,7.20
2019-03-02T13:26:38.668Z,7.10
2019-03-02T13:29:16.438Z,7.20
2019-03-02T13:32:08.494Z,7.30
2019-03-02T13:34:54.441Z,7.30
2019-03-02T13:37:41.465Z,7.30
2019-03-02T13:40:26.358Z,7.30
2019-03-02T13:43:12.244Z,7.20
2019-03-02T13:46:01.767Z,7.10
2019-03-02T13:48:50.168Z,7.10
2019-03-02T13:51:37.397Z,7.00
2019-03-02T13:54:20.629Z,7.10
2019-03-02T13:57:10.463Z,7.20
2019-03-02T13:59:54.850Z,7.20
2019-03-02T14:02:48.250Z,7.20
2019-03-02T14:05:31.642Z,7.20
2019-03-02T14:08:27.923Z,7.30
2019-03-02T14:11:14.945Z,7.20
2019-03-02T14:13:53.629Z,7.20
2019-03-02T14:16:39.675Z,7.10
2019-03-02T14:19:24.071Z,7.10
2019-03-02T14:22:11.345Z,7.00
2019-03-02T14:24:53.945Z,6.80
2019-03-02T14:27:40.274Z,6.90
2019-03-02T14:30:24.776Z,6.90
2019-03-02T14:33:02.792Z,6.80
2019-03-02T14:35:42.920Z,6.90
2019-03-02T14:38:23.514Z,7.00
2019-03-02T14:40:56.799Z,7.00
2019-03-02T14:43:35.858Z,7.00
2019-03-02T14:46:24.722Z,7.00
2019-03-02T14:49:08.412Z,7.00
2019-03-02T14:51:45.730Z,6.90
2019-03-02T14:54:20.734Z,6.90
2019-03-02T14:56:55.874Z,6.90
2019-03-02T14:59:41.880Z,6.80
2019-03-02T15:02:18.682Z,6.90
2019-03-02T15:05:04.435Z,6.80
2019-03-02T15:07:47.726Z,6.80
2019-03-02T15:10:31.705Z,6.70
2019-03-02T15:13:19.254Z,6.70
2019-03-02T15:16:00.104Z,6.70
2019-03-02T15:18:53.795Z,6.70
2019-03-02T15:21:44.382Z,6.70
2019-03-02T15:24:28.858Z,6.70
2019-03-02T15:27:02.181Z,6.80
2019-03-02T15:29:46.345Z,6.80
2019-03-02T15:32:34.575Z,6.80
2019-03-02T15:35:19.085Z,6.80
2019-03-02T15:38:08.978Z,6.70
2019-03-02T15:40:55.260Z,6.60
2019-03-02T15:43:31.400Z,6.50
2019-03-02T15:46:26.217Z,6.60
2019-03-02T15:49:07.358Z,6.60
2019-03-02T15:51:54.244Z,6.60
2019-03-02T15:54:47.263Z,6.70
2019-03-02T15:57:25.132Z,6.70
2019-03-02T16:00:13.434Z,6.80
2019-03-02T16:02:57.355Z,6.70
2019-03-02T16:05:40.290Z,6.70
2019-03-02T16:08:26.706Z,6.70
2019-03-02T16:11:03.781Z,6.60
2019-03-02T16:13:49.467Z,6.60
2019-03-02T16:16:28.942Z,6.60
2019-03-02T16:19:15.846Z,6.60
2019-03-02T16:22:00.978Z,6.50
2019-03-02T16:24:48.883Z,6.50
2019-03-02T16:27:30.263Z,6.50
2019-03-02T16:30:10.778Z,6.40
2019-03-02T16:33:13.196Z,6.30
2019-03-02T16:35:52.485Z,6.30
2019-03-02T16:38:34.431Z,6.20
2019-03-02T16:41:11.458Z,6.20
2019-03-02T16:43:46.011Z,6.10
2019-03-02T16:46:20.996Z,6.00
2019-03-02T16:49:08.032Z,6.00
2019-03-02T16:51:53.993Z,5.90
2019-03-02T16:54:35.558Z,5.90
2019-03-02T16:57:34.615Z,5.80
2019-03-02T17:00:13.042Z,5.80
2019-03-02T17:02:56.481Z,5.80
2019-03-02T17:05:33.760Z,5.80
2019-03-02T17:08:23.740Z,5.80
2019-03-02T17:11:03.331Z,5.70
2019-03-02T17:13:38.132Z,5.70
2019-03-02T17:16:21.738Z,5.70
2019-03-02T17:19:08.079Z,5.60
2019-03-02T17:21:41.025Z,5.60
2019-03-02T17:24:30.744Z,5.60
2019-03-02T17:27:17.789Z,5.60
2019-03-02T17:30:11.365Z,5.60
2019-03-02T17:33:04.132Z,5.60
2019-03-02T17:35:54.075Z,5.60
2019-03-02T17:38:38.160Z,5.60
2019-03-02T17:41:24.043Z,5.60
2019-03-02T17:44:09.066Z,5.60
2019-03-02T17:46:42.647Z,5.60
2019-03-02T17:49:31.611Z,5.60
2019-03-02T17:52:19.846Z,5.60
2019-03-02T17:54:54.509Z,5.70
2019-03-02T17:57:41.531Z,5.70
2019-03-02T18:00:21.376Z,5.70
2019-03-02T18:02:59.054Z,5.70
2019-03-02T18:05:47.527Z,5.70
2019-03-02T18:08:34.032Z,5.70
2019-03-02T18:11:26.965Z,5.70
2019-03-02T18:14:21.444Z,5.70
2019-03-02T18:17:04.379Z,5.70
2019-03-02T18:19:32.213Z,5.70
2019-03-02T18:22:00.068Z,5.70
2019-03-02T18:24:28.017Z,5.70
2019-03-02T18:26:57.061Z,5.70
2019-03-02T18:29:29.285Z,5.60
2019-03-02T18:31:57.395Z,5.60
2019-03-02T18:34:25.429Z,5.60
2019-03-02T18:36:54.113Z,5.60
2019-03-02T18:39:25.266Z,5.50
2019-03-02T18:41:53.903Z,5.40
2019-03-02T18:44:22.480Z,5.30
2019-03-02T18:46:53.197Z,5.20
2019-03-02T18:49:29.129Z,5.10
2019-03-02T18:52:11.073Z,5.10
2019-03-02T18:54:38.898Z,5.10
2019-03-02T18:57:09.745Z,5.00
2019-03-02T18:59:39.929Z,5.00
2019-03-02T19:02:11.551Z,5.00
2019-03-02T19:04:37.233Z,4.90
2019-03-02T19:07:05.322Z,4.90
2019-03-02T19:09:33.411Z,5.00
2019-03-02T19:12:01.375Z,4.90
2019-03-02T19:14:30.363Z,4.80
2019-03-02T19:16:58.321Z,4.80
2019-03-02T19:19:26.254Z,4.70
2019-03-02T19:21:54.067Z,4.80
2019-03-02T19:24:21.902Z,4.80
2019-03-02T19:26:50.200Z,4.80
2019-03-02T19:29:18.046Z,4.80
2019-03-02T19:31:46.214Z,4.70
2019-03-02T19:34:14.155Z,4.70
2019-03-02T19:36:41.992Z,4.70
2019-03-02T19:39:17.173Z,4.70
2019-03-02T19:41:45.079Z,4.70
2019-03-02T19:44:13.204Z,4.70
2019-03-02T19:46:42.363Z,4.70
2019-03-02T19:49:10.211Z,4.70
2019-03-02T19:51:38.108Z,4.70
2019-03-02T19:54:05.941Z,4.70
2019-03-02T19:56:33.844Z,4.70
2019-03-02T19:59:01.941Z,4.70
2019-03-02T20:01:29.783Z,4.70
2019-03-02T20:03:57.631Z,4.70
2019-03-02T20:06:25.503Z,4.70
2019-03-02T20:08:53.363Z,4.70
2019-03-02T20:11:21.229Z,4.70
2019-03-02T20:13:49.085Z,4.70
2019-03-02T20:16:17.041Z,4.70
2019-03-02T20:18:44.931Z,4.70
2019-03-02T20:21:12.793Z,4.70
2019-03-02T20:23:40.655Z,4.70
2019-03-02T20:26:08.567Z,4.70
2019-03-02T20:28:36.400Z,4.70
2019-03-02T20:31:04.281Z,4.70
2019-03-02T20:33:32.139Z,4.70
2019-03-02T20:36:00.020Z,4.70
2019-03-02T20:38:27.867Z,4.70
2019-03-02T20:40:55.919Z,4.70
2019-03-02T20:43:23.693Z,4.70
2019-03-02T20:45:51.602Z,4.70
2019-03-02T20:48:19.433Z,4.70
2019-03-02T20:50:47.391Z,4.60
2019-03-02T20:53:15.314Z,4.60
2019-03-02T20:55:43.404Z,4.60
2019-03-02T20:58:11.245Z,4.60
2019-03-02T21:00:39.397Z,4.60
2019-03-02T21:03:07.538Z,4.50
2019-03-02T21:05:35.904Z,4.50
2019-03-02T21:08:04.210Z,4.50
2019-03-02T21:10:32.078Z,4.40
2019-03-02T21:13:00.113Z,4.40
2019-03-02T21:15:31.082Z,4.50
2019-03-02T21:17:58.997Z,4.50
2019-03-02T21:20:26.827Z,4.60
2019-03-02T21:22:54.718Z,4.60
2019-03-02T21:25:22.667Z,4.50
2019-03-02T21:27:50.541Z,4.60
2019-03-02T21:30:18.420Z,4.70
2019-03-02T21:32:46.290Z,4.80
2019-03-02T21:35:14.326Z,4.80
2019-03-02T21:37:42.607Z,4.90
2019-03-02T21:40:11.757Z,4.90
2019-03-02T21:42:39.594Z,4.90
2019-03-02T21:45:08.418Z,5.00
2019-03-02T21:47:36.527Z,5.00
2019-03-02T21:50:05.054Z,5.00
2019-03-02T21:52:32.919Z,5.00
2019-03-02T21:55:01.340Z,5.10
2019-03-02T21:57:29.229Z,5.10
2019-03-02T21:59:57.112Z,5.10
2019-03-02T22:02:24.995Z,5.10
2019-03-02T22:04:52.855Z,5.20
2019-03-02T22:07:21.253Z,5.20
2019-03-02T22:09:49.122Z,5.20
2019-03-02T22:12:16.981Z,5.20
2019-03-02T22:14:44.816Z,5.20
2019-03-02T22:17:12.739Z,5.30
2019-03-02T22:19:40.571Z,5.20
2019-03-02T22:22:08.376Z,5.20
2019-03-02T22:24:36.209Z,5.30
2019-03-02T22:27:04.332Z,5.30
2019-03-02T22:29:32.396Z,5.30
2019-03-02T22:32:01.252Z,5.40
2019-03-02T22:34:29.017Z,5.30
2019-03-02T22:36:56.877Z,5.40
2019-03-02T22:39:24.735Z,5.40
2019-03-02T22:41:52.587Z,5.40
2019-03-02T22:44:20.453Z,5.40
2019-03-02T22:46:48.340Z,5.40
2019-03-02T22:49:16.129Z,5.40
2019-03-02T22:51:43.951Z,5.40
2019-03-02T22:54:11.750Z,5.40
2019-03-02T22:56:39.514Z,5.50
2019-03-02T22:59:06.687Z,5.40
2019-03-02T23:01:47.448Z,5.40
2019-03-02T23:04:15.310Z,5.40
2019-03-02T23:06:43.436Z,5.30
2019-03-02T23:09:11.835Z,5.20
2019-03-02T23:11:39.932Z,5.20
2019-03-02T23:14:07.710Z,5.10
2019-03-02T23:16:35.486Z,5.00
2019-03-02T23:19:03.775Z,5.00
2019-03-02T23:21:31.603Z,5.00
2019-03-02T23:23:59.389Z,5.10
2019-03-02T23:26:27.398Z,5.10
2019-03-02T23:28:55.187Z,5.10
2019-03-02T23:31:23.044Z,5.10
2019-03-02T23:33:50.975Z,5.10
2019-03-02T23:36:18.781Z,5.00
2019-03-02T23:38:46.674Z,5.00
2019-03-02T23:41:14.559Z,5.00
2019-03-02T23:43:42.467Z,5.00
2019-03-02T23:46:10.371Z,5.00
2019-03-02T23:48:38.243Z,5.00
2019-03-02T23:51:06.298Z,5.10
2019-03-02T23:53:34.185Z,5.10
2019-03-02T23:56:02.027Z,5.10
2019-03-02T23:58:29.910Z,5.10
